| Känerkinden Datum - Zeit | Temperatur | Taupunkt | Feuchte | Solar | Wind | aus Richtung | Windböen | Luftdruck (QFF) | Regen | Regenstärke | Trend |
| 06.09.2026 - 00.00Uhr | 15.6 °C | 13.4 °C | 87 % | 0.0 W/m² | 0.0 km/h | Ost-NO | 0.0 km/h | 1023.4 hPa | 0.0 mm | 0.0 mm/h | sonnig |
| 06.09.2026 - 00.05Uhr | 15.6 °C | 13.4 °C | 87 % | 0.0 W/m² | 0.0 km/h | Ost-NO | 0.0 km/h | 1023.4 hPa | 0.0 mm | 0.0 mm/h | wechselhaft |
| 06.09.2026 - 00.10Uhr | 15.7 °C | 13.5 °C | 87 % | 0.0 W/m² | 0.0 km/h | Ost-NO | 0.0 km/h | 1023.5 hPa | 0.0 mm | 0.0 mm/h | wechselhaft |
| 06.09.2026 - 00.15Uhr | 15.7 °C | 13.5 °C | 87 % | 0.0 W/m² | 2.2 km/h | Ost-SO | 6.5 km/h | 1023.4 hPa | 0.0 mm | 0.0 mm/h | wechselhaft |
| 06.09.2026 - 00.20Uhr | 15.6 °C | 13.4 °C | 87 % | 0.0 W/m² | 0.0 km/h | Ost-SO | 0.0 km/h | 1023.4 hPa | 0.0 mm | 0.0 mm/h | wechselhaft |
| 06.09.2026 - 00.25Uhr | 15.4 °C | 13.2 °C | 87 % | 0.0 W/m² | 0.0 km/h | Ost-SO | 0.0 km/h | 1023.4 hPa | 0.0 mm | 0.0 mm/h | wechselhaft |
| 06.09.2026 - 00.30Uhr | 15.4 °C | 13.3 °C | 88 % | 0.0 W/m² | 2.2 km/h | Nordosten | 4.7 km/h | 1023.5 hPa | 0.0 mm | 0.0 mm/h | wechselhaft |
| 06.09.2026 - 00.35Uhr | 15.7 °C | 13.6 °C | 87 % | 0.0 W/m² | 1.4 km/h | Nordosten | 4.7 km/h | 1023.5 hPa | 0.0 mm | 0.0 mm/h | wechselhaft |
| 06.09.2026 - 00.40Uhr | 15.7 °C | 13.5 °C | 87 % | 0.0 W/m² | 0.0 km/h | Nordosten | 0.0 km/h | 1023.4 hPa | 0.0 mm | 0.0 mm/h | wechselhaft |
| 06.09.2026 - 00.45Uhr | 15.7 °C | 13.5 °C | 87 % | 0.0 W/m² | 2.5 km/h | Osten | 4.7 km/h | 1023.5 hPa | 0.0 mm | 0.0 mm/h | wechselhaft |
| 06.09.2026 - 00.50Uhr | 15.7 °C | 13.4 °C | 86 % | 0.0 W/m² | 0.7 km/h | Osten | 3.2 km/h | 1023.5 hPa | 0.0 mm | 0.0 mm/h | wechselhaft |
| 06.09.2026 - 00.55Uhr | 15.5 °C | 13.3 °C | 87 % | 0.0 W/m² | 0.1 km/h | Osten | 1.4 km/h | 1023.5 hPa | 0.0 mm | 0.0 mm/h | wechselhaft |
| 06.09.2026 - 01.00Uhr | 15.5 °C | 13.3 °C | 87 % | 0.0 W/m² | 0.0 km/h | Osten | 0.0 km/h | 1023.5 hPa | 0.0 mm | 0.0 mm/h | wechselhaft |
| 06.09.2026 - 01.05Uhr | 15.4 °C | 13.2 °C | 87 % | 0.0 W/m² | 0.0 km/h | Osten | 0.0 km/h | 1023.4 hPa | 0.0 mm | 0.0 mm/h | wechselhaft |
| 06.09.2026 - 01.10Uhr | 15.3 °C | 13.1 °C | 87 % | 0.0 W/m² | 0.0 km/h | Osten | 0.0 km/h | 1023.4 hPa | 0.0 mm | 0.0 mm/h | wechselhaft |
| 06.09.2026 - 01.15Uhr | 15.2 °C | 13.2 °C | 88 % | 0.0 W/m² | 0.0 km/h | Osten | 0.0 km/h | 1023.4 hPa | 0.0 mm | 0.0 mm/h | wechselhaft |
| 06.09.2026 - 01.20Uhr | 15.2 °C | 13.2 °C | 88 % | 0.0 W/m² | 0.0 km/h | Osten | 0.0 km/h | 1023.5 hPa | 0.0 mm | 0.0 mm/h | wechselhaft |
| 06.09.2026 - 01.25Uhr | 15.2 °C | 13.2 °C | 88 % | 0.0 W/m² | 0.0 km/h | Osten | 0.0 km/h | 1023.5 hPa | 0.0 mm | 0.0 mm/h | wechselhaft |
| 06.09.2026 - 01.30Uhr | 15.1 °C | 13.1 °C | 88 % | 0.0 W/m² | 0.0 km/h | Osten | 0.0 km/h | 1023.6 hPa | 0.0 mm | 0.0 mm/h | wechselhaft |
| 06.09.2026 - 01.35Uhr | 14.9 °C | 12.9 °C | 88 % | 0.0 W/m² | 0.0 km/h | Osten | 0.0 km/h | 1023.6 hPa | 0.0 mm | 0.0 mm/h | wechselhaft |
| 06.09.2026 - 01.40Uhr | 14.7 °C | 12.7 °C | 88 % | 0.0 W/m² | 0.0 km/h | Osten | 0.0 km/h | 1023.6 hPa | 0.0 mm | 0.0 mm/h | wechselhaft |
| 06.09.2026 - 01.45Uhr | 14.7 °C | 12.9 °C | 89 % | 0.0 W/m² | 0.0 km/h | Osten | 0.0 km/h | 1023.5 hPa | 0.0 mm | 0.0 mm/h | wechselhaft |
| 06.09.2026 - 01.50Uhr | 14.9 °C | 13.1 °C | 89 % | 0.0 W/m² | 0.0 km/h | Osten | 0.0 km/h | 1023.5 hPa | 0.0 mm | 0.0 mm/h | wechselhaft |
| 06.09.2026 - 01.55Uhr | 15.0 °C | 13.0 °C | 88 % | 0.0 W/m² | 0.0 km/h | Osten | 0.0 km/h | 1023.4 hPa | 0.0 mm | 0.0 mm/h | wechselhaft |
| 06.09.2026 - 02.00Uhr | 14.7 °C | 12.7 °C | 88 % | 0.0 W/m² | 0.0 km/h | Osten | 0.0 km/h | 1023.5 hPa | 0.0 mm | 0.0 mm/h | wechselhaft |
| 06.09.2026 - 02.05Uhr | 14.7 °C | 12.8 °C | 89 % | 0.0 W/m² | 0.0 km/h | Osten | 0.0 km/h | 1023.4 hPa | 0.0 mm | 0.0 mm/h | wechselhaft |
| 06.09.2026 - 02.10Uhr | 14.5 °C | 12.5 °C | 88 % | 0.0 W/m² | 0.0 km/h | Osten | 0.0 km/h | 1023.4 hPa | 0.0 mm | 0.0 mm/h | wechselhaft |
| 06.09.2026 - 02.15Uhr | 14.3 °C | 12.6 °C | 90 % | 0.0 W/m² | 0.0 km/h | Osten | 0.0 km/h | 1023.4 hPa | 0.0 mm | 0.0 mm/h | wechselhaft |
| 06.09.2026 - 02.20Uhr | 14.3 °C | 12.6 °C | 89 % | 0.0 W/m² | 0.0 km/h | Osten | 0.0 km/h | 1023.3 hPa | 0.0 mm | 0.0 mm/h | wechselhaft |
| 06.09.2026 - 02.25Uhr | 14.2 °C | 12.5 °C | 89 % | 0.0 W/m² | 0.0 km/h | Osten | 0.0 km/h | 1023.3 hPa | 0.0 mm | 0.0 mm/h | wechselhaft |
| 06.09.2026 - 02.30Uhr | 14.1 °C | 12.3 °C | 89 % | 0.0 W/m² | 0.0 km/h | Osten | 0.0 km/h | 1023.3 hPa | 0.0 mm | 0.0 mm/h | wechselhaft |
| 06.09.2026 - 02.35Uhr | 14.2 °C | 12.6 °C | 90 % | 0.0 W/m² | 0.0 km/h | Osten | 0.0 km/h | 1023.2 hPa | 0.0 mm | 0.0 mm/h | wechselhaft |
| 06.09.2026 - 02.40Uhr | 14.2 °C | 12.6 °C | 90 % | 0.0 W/m² | 0.0 km/h | Osten | 0.0 km/h | 1023.3 hPa | 0.0 mm | 0.0 mm/h | wechselhaft |
| 06.09.2026 - 02.45Uhr | 14.2 °C | 12.6 °C | 90 % | 0.0 W/m² | 0.0 km/h | Osten | 0.0 km/h | 1023.3 hPa | 0.0 mm | 0.0 mm/h | wechselhaft |
| 06.09.2026 - 02.50Uhr | 14.2 °C | 12.6 °C | 90 % | 0.0 W/m² | 0.0 km/h | Osten | 0.0 km/h | 1023.2 hPa | 0.0 mm | 0.0 mm/h | wechselhaft |
| 06.09.2026 - 02.55Uhr | 14.3 °C | 12.7 °C | 90 % | 0.0 W/m² | 0.0 km/h | Osten | 0.0 km/h | 1023.2 hPa | 0.0 mm | 0.0 mm/h | wechselhaft |
| 06.09.2026 - 03.00Uhr | 14.3 °C | 12.7 °C | 90 % | 0.0 W/m² | 0.0 km/h | Osten | 0.0 km/h | 1023.2 hPa | 0.0 mm | 0.0 mm/h | wechselhaft |
| 06.09.2026 - 03.05Uhr | 14.3 °C | 12.7 °C | 90 % | 0.0 W/m² | 0.0 km/h | Osten | 0.0 km/h | 1023.3 hPa | 0.0 mm | 0.0 mm/h | wechselhaft |
| 06.09.2026 - 03.10Uhr | 14.3 °C | 12.7 °C | 90 % | 0.0 W/m² | 0.0 km/h | Osten | 0.0 km/h | 1023.3 hPa | 0.0 mm | 0.0 mm/h | wechselhaft |
| 06.09.2026 - 03.15Uhr | 14.2 °C | 12.5 °C | 90 % | 0.0 W/m² | 0.0 km/h | Osten | 0.0 km/h | 1023.4 hPa | 0.0 mm | 0.0 mm/h | wechselhaft |
| 06.09.2026 - 03.20Uhr | 14.3 °C | 12.8 °C | 90 % | 0.0 W/m² | 0.0 km/h | Osten | 0.0 km/h | 1023.4 hPa | 0.0 mm | 0.0 mm/h | wechselhaft |
| 06.09.2026 - 03.25Uhr | 14.3 °C | 12.7 °C | 90 % | 0.0 W/m² | 0.0 km/h | Osten | 0.0 km/h | 1023.4 hPa | 0.0 mm | 0.0 mm/h | wechselhaft |
| 06.09.2026 - 03.30Uhr | 14.1 °C | 12.4 °C | 89 % | 0.0 W/m² | 0.0 km/h | Osten | 0.0 km/h | 1023.4 hPa | 0.0 mm | 0.0 mm/h | wechselhaft |
| 06.09.2026 - 03.35Uhr | 14.1 °C | 12.6 °C | 90 % | 0.0 W/m² | 0.0 km/h | Osten | 0.0 km/h | 1023.4 hPa | 0.0 mm | 0.0 mm/h | wechselhaft |
| 06.09.2026 - 03.40Uhr | 14.2 °C | 12.6 °C | 90 % | 0.0 W/m² | 0.0 km/h | Osten | 0.0 km/h | 1023.5 hPa | 0.0 mm | 0.0 mm/h | wechselhaft |
| 06.09.2026 - 03.45Uhr | 14.0 °C | 12.3 °C | 90 % | 0.0 W/m² | 0.0 km/h | Osten | 0.0 km/h | 1023.4 hPa | 0.0 mm | 0.0 mm/h | wechselhaft |
| 06.09.2026 - 03.50Uhr | 13.7 °C | 12.0 °C | 90 % | 0.0 W/m² | 0.0 km/h | Osten | 0.0 km/h | 1023.4 hPa | 0.0 mm | 0.0 mm/h | wechselhaft |
| 06.09.2026 - 03.55Uhr | 13.7 °C | 12.1 °C | 90 % | 0.0 W/m² | 0.0 km/h | Osten | 0.0 km/h | 1023.4 hPa | 0.0 mm | 0.0 mm/h | wechselhaft |